Time;durP1;ratioP1;P1;durP2;ratioP2;P2;SDS_P1;SDS_P2;PMS_P1;PMS_P2;Temp;Humidity;BMP_temperature;BMP_pressure;BME280_temperature;BME280_humidity;BME280_pressure;Samples;Min_cycle;Max_cycle;Signal;HPM_P1;HPM_P2
2022/03/13 00:02:35;;;;;;;3.55;1.50;;;11.90;99.90;;;;;;20611945;28;20050;-48
2022/03/13 00:12:37;;;;;;;3.10;1.55;;;11.80;99.90;;;;;;20619458;28;20035;-48
2022/03/13 00:22:39;;;;;;;3.33;1.63;;;11.80;99.90;;;;;;20627732;28;20057;-48
2022/03/13 00:32:40;;;;;;;4.07;1.65;;;11.90;99.90;;;;;;20629443;28;20413;-48
2022/03/13 00:42:42;;;;;;;4.28;1.73;;;11.90;99.90;;;;;;20609041;28;20430;-48
2022/03/13 00:52:44;;;;;;;3.92;1.85;;;11.80;99.90;;;;;;20608527;28;20053;-48
2022/03/13 01:02:45;;;;;;;6.72;2.22;;;11.80;99.90;;;;;;20638182;28;20054;-48
2022/03/13 01:12:49;;;;;;;8.88;2.70;;;11.80;99.90;;;;;;20620257;28;20035;-48
2022/03/13 01:22:50;;;;;;;4.10;2.15;;;11.60;99.90;;;;;;20630269;28;20051;-48
2022/03/13 01:32:53;;;;;;;4.28;1.60;;;11.50;99.90;;;;;;20624925;28;20047;-49
2022/03/13 01:42:55;;;;;;;5.18;2.70;;;11.60;99.90;;;;;;20628768;28;20046;-48
2022/03/13 01:52:56;;;;;;;6.07;1.92;;;11.50;99.90;;;;;;20618308;28;20035;-48
2022/03/13 02:02:58;;;;;;;5.25;2.08;;;11.50;99.90;;;;;;20631206;28;20050;-47
2022/03/13 02:13:00;;;;;;;5.80;1.73;;;11.50;99.90;;;;;;20629252;28;20429;-48
2022/03/13 02:23:05;;;;;;;4.93;1.48;;;11.40;99.90;;;;;;20633453;28;20077;-48
2022/03/13 02:33:06;;;;;;;3.47;1.20;;;11.40;99.90;;;;;;20618925;28;20043;-48
2022/03/13 02:43:07;;;;;;;4.28;1.40;;;11.40;99.90;;;;;;20625359;28;20063;-47
2022/03/13 02:53:10;;;;;;;6.40;1.85;;;11.30;99.90;;;;;;20629117;28;20435;-48
2022/03/13 03:03:20;;;;;;;3.75;2.13;;;11.20;99.90;;;;;;20628155;28;20034;-48
2022/03/13 03:13:22;;;;;;;3.58;1.77;;;11.20;99.90;;;;;;20617732;28;20039;-48
2022/03/13 03:23:23;;;;;;;4.82;2.00;;;11.10;99.90;;;;;;20603629;28;20577;-48
2022/03/13 03:33:24;;;;;;;4.38;1.77;;;11.10;99.90;;;;;;21016379;23;20054;-47
2022/03/13 03:43:25;;;;;;;6.25;2.30;;;10.90;99.90;;;;;;20586812;28;20070;-47
2022/03/13 03:53:28;;;;;;;6.20;2.33;;;10.80;99.90;;;;;;20589468;28;20516;-52
2022/03/13 04:03:29;;;;;;;4.45;1.92;;;10.80;99.90;;;;;;20595206;28;20055;-48
2022/03/13 04:13:30;;;;;;;3.53;1.55;;;10.60;99.90;;;;;;20622892;28;20888;-46
2022/03/13 04:23:34;;;;;;;3.97;1.98;;;10.50;99.90;;;;;;20637976;28;20050;-47
2022/03/13 04:33:36;;;;;;;3.72;1.17;;;10.40;99.90;;;;;;20661719;28;20494;-47
2022/03/13 04:43:38;;;;;;;3.78;1.42;;;10.40;99.90;;;;;;20647269;28;20090;-47
2022/03/13 04:53:39;;;;;;;7.72;1.92;;;10.40;99.90;;;;;;20648985;28;20043;-47
2022/03/13 05:03:40;;;;;;;6.25;2.38;;;10.40;99.90;;;;;;20649074;28;20055;-47
2022/03/13 05:13:41;;;;;;;6.55;3.22;;;10.30;99.90;;;;;;20659129;28;20054;-47
2022/03/13 05:23:42;;;;;;;7.10;2.90;;;10.20;99.90;;;;;;20634289;28;20047;-47
2022/03/13 05:33:43;;;;;;;8.07;3.63;;;10.10;99.90;;;;;;20624922;28;20050;-47
2022/03/13 05:43:45;;;;;;;8.85;4.03;;;10.00;99.90;;;;;;20645546;28;20046;-47
2022/03/13 05:53:46;;;;;;;10.02;4.75;;;10.10;99.90;;;;;;20652747;28;20409;-47
2022/03/13 06:03:47;;;;;;;10.32;4.07;;;10.00;99.90;;;;;;20631427;28;20275;-47
2022/03/13 06:13:48;;;;;;;11.88;4.88;;;9.90;99.90;;;;;;20629229;28;20046;-47
2022/03/13 06:23:49;;;;;;;11.27;4.70;;;10.00;99.90;;;;;;20637742;28;20148;-47
2022/03/13 06:33:50;;;;;;;14.40;4.88;;;9.80;99.90;;;;;;20637989;28;20053;-47
2022/03/13 06:43:53;;;;;;;9.60;4.72;;;9.60;99.90;;;;;;20637740;28;20046;-47
2022/03/13 06:53:54;;;;;;;10.00;4.65;;;9.70;99.90;;;;;;20621956;28;20047;-48
2022/03/13 07:03:55;;;;;;;9.48;4.50;;;9.70;99.90;;;;;;20591320;28;20073;-47
2022/03/13 07:13:56;;;;;;;11.20;5.07;;;9.70;99.90;;;;;;20596050;28;20035;-47
2022/03/13 07:23:57;;;;;;;14.98;4.38;;;9.80;99.90;;;;;;20606635;28;20042;-47
2022/03/13 07:33:58;;;;;;;9.40;4.63;;;9.70;99.90;;;;;;20632044;28;20074;-48
2022/03/13 07:44:03;;;;;;;10.10;5.03;;;9.90;99.90;;;;;;20633408;28;20355;-47
2022/03/13 07:54:04;;;;;;;10.40;3.88;;;10.00;99.90;;;;;;20631816;28;20050;-47
2022/03/13 08:04:06;;;;;;;9.77;4.38;;;10.20;99.90;;;;;;20627477;28;20064;-48
2022/03/13 08:14:12;;;;;;;11.75;4.95;;;10.40;99.90;;;;;;20641241;28;20034;-47
2022/03/13 08:24:15;;;;;;;10.30;4.60;;;10.50;99.90;;;;;;20605820;28;20049;-47
2022/03/13 08:34:16;;;;;;;11.45;5.10;;;10.80;99.90;;;;;;20647988;28;20595;-47
2022/03/13 08:44:17;;;;;;;10.82;5.03;;;11.10;99.90;;;;;;20645563;28;20056;-47
2022/03/13 08:54:19;;;;;;;10.88;4.80;;;11.30;99.90;;;;;;20661860;28;20038;-47
2022/03/13 09:04:20;;;;;;;12.35;4.43;;;11.20;99.90;;;;;;20642792;28;20057;-47
2022/03/13 09:14:21;;;;;;;8.50;4.28;;;11.40;99.90;;;;;;20656108;28;20042;-47
2022/03/13 09:24:23;;;;;;;9.50;5.18;;;11.60;99.90;;;;;;20649583;28;20053;-47
2022/03/13 09:34:26;;;;;;;8.38;4.68;;;11.70;99.90;;;;;;20641420;28;20904;-47
2022/03/13 09:44:28;;;;;;;11.07;4.50;;;12.10;99.90;;;;;;20625344;28;20050;-47
2022/03/13 09:54:29;;;;;;;11.40;5.15;;;12.10;99.90;;;;;;20618363;28;20045;-47
2022/03/13 10:04:35;;;;;;;8.50;4.65;;;12.40;99.90;;;;;;20607094;28;20065;-47
2022/03/13 10:14:39;;;;;;;13.57;4.63;;;12.30;99.90;;;;;;20563396;28;21717;-47
2022/03/13 10:24:47;;;;;;;12.18;4.75;;;12.80;99.90;;;;;;20603272;28;20046;-48
2022/03/13 10:34:59;;;;;;;11.50;5.30;;;13.10;99.90;;;;;;20584329;28;20820;-47
2022/03/13 10:45:02;;;;;;;12.95;5.70;;;13.10;99.90;;;;;;20594310;28;20039;-47
2022/03/13 10:55:21;;;;;;;10.57;4.43;;;13.20;99.90;;;;;;20554925;28;20038;-47
2022/03/13 11:05:22;;;;;;;10.15;4.03;;;13.50;99.90;;;;;;20605327;28;20050;-47
2022/03/13 11:15:27;;;;;;;9.82;4.88;;;13.80;99.90;;;;;;20627684;28;20528;-48
2022/03/13 11:25:30;;;;;;;12.00;4.97;;;14.60;99.90;;;;;;20621838;28;20058;-47
2022/03/13 11:35:32;;;;;;;9.55;4.05;;;15.10;99.90;;;;;;20558051;28;20043;-47
2022/03/13 11:45:36;;;;;;;12.18;5.43;;;15.60;99.90;;;;;;20627986;28;20177;-47
2022/03/13 11:55:57;;;;;;;9.90;4.50;;;16.00;99.20;;;;;;20626190;28;20235;-47
2022/03/13 12:05:59;;;;;;;10.95;4.82;;;16.10;98.50;;;;;;20637628;28;20047;-47
2022/03/13 12:16:12;;;;;;;9.73;4.38;;;15.90;99.00;;;;;;20623899;28;20049;-47
2022/03/13 12:26:14;;;;;;;7.35;3.78;;;16.50;98.20;;;;;;20614675;28;20378;-48
2022/03/13 12:36:17;;;;;;;12.02;4.55;;;16.70;98.00;;;;;;20628187;28;20050;-48
2022/03/13 12:46:21;;;;;;;7.60;3.83;;;16.60;97.40;;;;;;20565449;28;20058;-47
2022/03/13 12:56:30;;;;;;;11.35;4.35;;;16.40;98.50;;;;;;20614491;28;20052;-47
2022/03/13 13:06:34;;;;;;;7.35;3.10;;;16.60;97.70;;;;;;20622173;28;20216;-47
2022/03/13 13:16:36;;;;;;;7.13;2.53;;;17.30;96.80;;;;;;20621462;28;20037;-47
2022/03/13 13:26:42;;;;;;;9.00;3.97;;;17.50;96.50;;;;;;20625161;28;20062;-47
2022/03/13 13:36:43;;;;;;;8.07;3.85;;;17.90;96.70;;;;;;20633613;28;20355;-47
2022/03/13 13:46:44;;;;;;;9.98;3.05;;;18.00;95.60;;;;;;20634961;28;20452;-47
2022/03/13 13:56:54;;;;;;;6.18;3.17;;;18.10;95.50;;;;;;20580941;28;20058;-48
2022/03/13 14:06:56;;;;;;;9.68;2.58;;;18.10;95.30;;;;;;20614722;28;20213;-47
2022/03/13 14:16:58;;;;;;;7.20;2.97;;;17.40;95.70;;;;;;20659398;28;20038;-49
2022/03/13 14:26:59;;;;;;;5.88;2.70;;;17.50;95.80;;;;;;20653732;28;20121;-47
2022/03/13 14:37:01;;;;;;;7.47;2.83;;;18.00;95.40;;;;;;20633640;28;20046;-47
2022/03/13 14:47:02;;;;;;;6.38;3.33;;;17.80;94.60;;;;;;20640704;28;20047;-47
2022/03/13 14:57:03;;;;;;;4.65;2.63;;;17.50;95.30;;;;;;20661468;28;20056;-47
2022/03/13 15:07:05;;;;;;;4.30;2.20;;;17.60;95.40;;;;;;20646603;28;20057;-47
2022/03/13 15:17:06;;;;;;;5.28;2.20;;;17.40;94.90;;;;;;20644205;28;20044;-46
2022/03/13 15:27:08;;;;;;;4.57;2.05;;;17.50;95.10;;;;;;20637116;28;20065;-46
2022/03/13 15:37:11;;;;;;;4.15;1.90;;;17.40;95.40;;;;;;20634583;28;20046;-48
2022/03/13 15:47:12;;;;;;;3.63;1.65;;;17.60;94.40;;;;;;20645350;28;20045;-47
2022/03/13 15:57:13;;;;;;;3.60;1.58;;;17.30;95.10;;;;;;20652347;28;20038;-47
2022/03/13 16:07:14;;;;;;;3.75;1.50;;;17.20;94.10;;;;;;20618022;28;21442;-47
2022/03/13 16:17:16;;;;;;;3.70;1.05;;;16.90;94.50;;;;;;20658594;28;20050;-47
2022/03/13 16:27:17;;;;;;;2.63;1.05;;;16.90;94.80;;;;;;20655476;28;20034;-46
2022/03/13 16:37:19;;;;;;;2.97;1.00;;;16.70;94.90;;;;;;20632003;28;20038;-46
2022/03/13 16:47:21;;;;;;;2.30;0.93;;;16.50;94.90;;;;;;20588693;28;20062;-47
2022/03/13 16:57:22;;;;;;;3.10;1.40;;;16.40;94.80;;;;;;20587229;28;20050;-46
2022/03/13 17:07:23;;;;;;;2.90;1.20;;;16.30;95.00;;;;;;20633945;28;20050;-46
2022/03/13 17:17:25;;;;;;;2.58;1.17;;;16.20;95.50;;;;;;20626317;28;20046;-46
2022/03/13 17:27:26;;;;;;;2.22;0.88;;;16.00;95.60;;;;;;20635511;28;20927;-46
2022/03/13 17:37:27;;;;;;;2.35;0.98;;;15.90;95.80;;;;;;20652284;28;20406;-47
2022/03/13 17:47:28;;;;;;;20.88;7.70;;;15.70;96.30;;;;;;20655058;28;20422;-47
2022/03/13 17:57:29;;;;;;;8.45;3.67;;;15.50;97.30;;;;;;20649071;28;20076;-46
2022/03/13 18:07:31;;;;;;;9.07;2.00;;;15.30;97.40;;;;;;20663064;28;20061;-47
2022/03/13 18:17:32;;;;;;;4.00;2.17;;;15.20;97.70;;;;;;20646093;28;20030;-47
2022/03/13 18:27:34;;;;;;;4.43;2.13;;;15.10;98.00;;;;;;20646141;28;20488;-46
2022/03/13 18:37:35;;;;;;;5.55;2.10;;;15.00;98.70;;;;;;20640610;28;20046;-46
2022/03/13 18:47:36;;;;;;;3.05;1.20;;;15.00;98.40;;;;;;20633072;28;20046;-47
2022/03/13 18:57:38;;;;;;;3.65;1.30;;;14.90;98.80;;;;;;20668328;28;20046;-47
2022/03/13 19:07:41;;;;;;;2.83;1.10;;;14.80;98.90;;;;;;20640460;28;20050;-46
2022/03/13 19:17:45;;;;;;;3.42;1.52;;;14.80;99.20;;;;;;20643423;28;20069;-46
2022/03/13 19:27:48;;;;;;;2.90;1.55;;;14.80;99.40;;;;;;20634018;28;20050;-46
2022/03/13 19:37:49;;;;;;;3.40;1.65;;;14.60;99.60;;;;;;20622862;28;20884;-47
2022/03/13 19:47:52;;;;;;;4.90;1.58;;;14.50;99.90;;;;;;20650999;28;20105;-47
2022/03/13 19:57:54;;;;;;;4.03;1.40;;;14.50;99.90;;;;;;20668787;28;20069;-46
2022/03/13 20:07:55;;;;;;;2.35;0.98;;;14.40;99.90;;;;;;20639898;28;20049;-48
2022/03/13 20:17:56;;;;;;;1.92;0.90;;;14.20;99.90;;;;;;20641885;28;20046;-46
2022/03/13 20:27:58;;;;;;;2.70;1.05;;;14.20;99.90;;;;;;20630824;28;20096;-47
2022/03/13 20:38:02;;;;;;;2.88;1.30;;;14.00;99.90;;;;;;20598266;28;20493;-46
2022/03/13 20:48:03;;;;;;;3.35;1.35;;;14.00;99.90;;;;;;20650381;28;20049;-46
2022/03/13 20:58:04;;;;;;;3.65;1.33;;;13.80;99.90;;;;;;20652614;28;20034;-47
2022/03/13 21:08:06;;;;;;;3.78;1.25;;;13.60;99.90;;;;;;20650608;28;20057;-46
2022/03/13 21:18:07;;;;;;;3.45;1.48;;;13.40;99.90;;;;;;20646548;28;20039;-46
2022/03/13 21:28:08;;;;;;;3.10;1.33;;;13.20;99.90;;;;;;20639357;28;20351;-46
2022/03/13 21:38:09;;;;;;;3.17;1.20;;;13.00;99.90;;;;;;20665388;28;20050;-46
2022/03/13 21:48:10;;;;;;;2.05;0.88;;;13.00;99.90;;;;;;20639073;28;20042;-46
2022/03/13 21:58:13;;;;;;;6.25;2.63;;;12.80;99.90;;;;;;20653493;28;20045;-47
2022/03/13 22:08:16;;;;;;;1.80;0.80;;;12.80;99.90;;;;;;20656944;28;20051;-46
2022/03/13 22:18:21;;;;;;;1.83;0.73;;;12.70;99.90;;;;;;20665371;28;20119;-48
2022/03/13 22:28:22;;;;;;;2.20;0.60;;;12.70;99.90;;;;;;20636542;28;20047;-46
2022/03/13 22:38:24;;;;;;;1.85;0.70;;;12.60;99.90;;;;;;20635378;28;20061;-46
2022/03/13 22:48:25;;;;;;;2.42;0.63;;;12.40;99.90;;;;;;20636269;28;20601;-46
2022/03/13 22:58:30;;;;;;;2.72;1.15;;;12.40;99.90;;;;;;20597083;28;20499;-46
2022/03/13 23:08:31;;;;;;;3.40;0.88;;;12.30;99.90;;;;;;20604587;28;20046;-46
2022/03/13 23:18:33;;;;;;;1.30;0.70;;;12.20;99.90;;;;;;20591190;28;20043;-46
2022/03/13 23:28:34;;;;;;;1.52;0.70;;;12.20;99.90;;;;;;20592790;28;20034;-47
2022/03/13 23:38:43;;;;;;;1.83;0.60;;;12.10;99.90;;;;;;20597134;28;20046;-46
2022/03/13 23:48:44;;;;;;;2.10;0.77;;;12.10;99.90;;;;;;20640217;28;20050;-47
2022/03/13 23:58:46;;;;;;;2.05;0.70;;;12.00;99.90;;;;;;20633871;28;20051;-46
